Time;durP1;ratioP1;P1;durP2;ratioP2;P2;SDS_P1;SDS_P2;PMS_P1;PMS_P2;Temp;Humidity;BMP_temperature;BMP_pressure;BME280_temperature;BME280_humidity;BME280_pressure;Samples;Min_cycle;Max_cycle;Signal;HPM_P1;HPM_P2
2022/04/27 00:00:29;;;;;;;13.43;7.60;;;;;;;9.08;57.43;102085.06;5041686;28;20207;-46
2022/04/27 00:02:57;;;;;;;13.65;7.28;;;;;;;9.06;57.53;102074.56;5039777;28;20025;-45
2022/04/27 00:05:25;;;;;;;14.75;7.97;;;;;;;9.11;57.43;102084.66;5044354;28;20025;-45
2022/04/27 00:07:51;;;;;;;13.07;7.00;;;;;;;9.14;57.31;102084.22;5043861;28;20470;-47
2022/04/27 00:10:20;;;;;;;10.68;7.15;;;;;;;9.15;57.45;102085.88;5044291;28;20365;-44
2022/04/27 00:12:47;;;;;;;13.48;7.18;;;;;;;9.17;57.62;102083.03;5046119;28;20024;-46
2022/04/27 00:15:13;;;;;;;11.95;7.18;;;;;;;9.18;57.50;102084.66;5043320;28;20025;-45
2022/04/27 00:17:39;;;;;;;11.63;7.35;;;;;;;9.20;57.70;102082.59;5042101;28;20481;-45
2022/04/27 00:20:07;;;;;;;9.65;6.85;;;;;;;9.19;57.63;102094.34;5033528;28;20520;-47
2022/04/27 00:22:34;;;;;;;12.10;6.55;;;;;;;9.19;57.83;102087.13;5039650;28;20033;-49
2022/04/27 00:25:04;;;;;;;11.43;7.00;;;;;;;9.20;57.26;102088.78;5039663;28;20103;-46
2022/04/27 00:27:30;;;;;;;12.55;6.85;;;;;;;9.24;57.40;102081.97;5033415;28;20112;-45
2022/04/27 00:29:57;;;;;;;11.70;7.82;;;;;;;9.22;57.96;102086.72;5038476;28;20045;-45
2022/04/27 00:32:22;;;;;;;13.15;7.47;;;;;;;9.18;57.51;102085.50;5037718;28;20366;-47
2022/04/27 00:34:48;;;;;;;10.65;6.63;;;;;;;9.18;57.92;102085.50;5037756;28;20108;-48
2022/04/27 00:37:14;;;;;;;11.98;7.88;;;;;;;9.11;58.06;102081.97;5038922;28;20028;-46
2022/04/27 00:39:40;;;;;;;11.75;7.40;;;;;;;9.01;58.49;102095.78;5039041;28;20032;-46
2022/04/27 00:42:12;;;;;;;13.32;7.13;;;;;;;8.91;58.85;102084.63;5037418;28;20506;-48
2022/04/27 00:44:38;;;;;;;10.95;6.65;;;;;;;8.97;58.22;102088.34;5038686;28;20391;-45
2022/04/27 00:47:04;;;;;;;10.85;6.55;;;;;;;9.01;58.19;102094.94;5038254;28;20159;-46
2022/04/27 00:49:29;;;;;;;11.30;6.63;;;;;;;9.02;57.99;102077.88;5036738;28;20033;-45
2022/04/27 00:51:55;;;;;;;12.63;7.50;;;;;;;9.02;58.41;102085.91;5042231;28;20032;-45
2022/04/27 00:54:22;;;;;;;11.52;7.22;;;;;;;8.94;58.32;102086.06;5036671;28;20049;-47
2022/04/27 00:56:51;;;;;;;14.77;7.30;;;;;;;8.92;58.54;102093.47;5037918;28;20060;-47
2022/04/27 00:59:17;;;;;;;12.18;7.05;;;;;;;8.92;58.08;102091.63;5039590;28;20248;-47
2022/04/27 01:01:43;;;;;;;12.73;6.95;;;;;;;8.94;58.18;102088.75;5039195;28;20025;-45
2022/04/27 01:04:08;;;;;;;16.75;7.32;;;;;;;8.92;57.82;102090.81;5035896;28;20099;-46
2022/04/27 01:06:38;;;;;;;14.35;6.88;;;;;;;8.88;57.89;102094.91;5039428;28;20062;-46
2022/04/27 01:09:03;;;;;;;13.77;7.30;;;;;;;8.88;57.61;102098.41;5041864;28;20486;-45
2022/04/27 01:11:31;;;;;;;12.82;6.25;;;;;;;8.86;57.41;102096.97;5039198;28;20039;-48
2022/04/27 01:13:57;;;;;;;14.10;6.55;;;;;;;8.84;57.80;102097.19;5038126;28;20025;-47
2022/04/27 01:16:22;;;;;;;13.10;6.97;;;;;;;8.79;57.79;102097.78;5038246;28;20454;-46
2022/04/27 01:18:49;;;;;;;12.75;7.13;;;;;;;8.76;57.36;102105.38;5038219;28;20036;-45
2022/04/27 01:21:16;;;;;;;12.73;7.05;;;;;;;8.72;57.66;102098.81;5036931;28;20035;-45
2022/04/27 01:23:42;;;;;;;11.45;6.82;;;;;;;8.68;57.65;102100.25;5038625;28;20113;-46
2022/04/27 01:26:08;;;;;;;13.68;8.13;;;;;;;8.61;57.45;102105.53;5041364;28;20049;-46
2022/04/27 01:28:36;;;;;;;10.65;6.88;;;;;;;8.55;57.68;102111.72;5037684;28;20025;-47
2022/04/27 01:31:09;;;;;;;13.43;6.60;;;;;;;8.48;57.89;102114.38;5043121;28;20498;-46
2022/04/27 01:33:35;;;;;;;11.95;7.35;;;;;;;8.50;57.56;102113.34;5038176;28;20028;-46
2022/04/27 01:36:05;;;;;;;14.98;7.47;;;;;;;8.43;57.67;102113.31;5039272;28;20028;-46
2022/04/27 01:38:42;;;;;;;11.55;6.95;;;;;;;8.38;57.87;102121.09;5033030;28;20120;-46
2022/04/27 01:41:08;;;;;;;11.38;6.85;;;;;;;8.35;57.53;102121.50;5041984;28;20021;-46
2022/04/27 01:43:34;;;;;;;11.07;7.07;;;;;;;8.31;57.72;102114.88;5037471;28;20462;-46
2022/04/27 01:46:01;;;;;;;15.00;8.23;;;;;;;8.28;57.96;102121.47;5041570;28;20052;-45
2022/04/27 01:48:27;;;;;;;13.68;7.45;;;;;;;8.23;57.65;102123.88;5041611;28;20481;-45
2022/04/27 01:50:53;;;;;;;12.25;7.28;;;;;;;8.20;57.89;102124.28;5037644;28;20112;-46
2022/04/27 01:56:04;;;;;;;14.33;7.47;;;;;;;8.05;58.45;102127.06;5037744;28;20039;-47
2022/04/27 01:58:30;;;;;;;15.15;8.18;;;;;;;8.02;58.35;102130.16;5040549;28;20029;-47
2022/04/27 02:00:55;;;;;;;12.50;8.52;;;;;;;7.97;58.89;102126.44;5035402;28;20051;-46
2022/04/27 02:03:22;;;;;;;12.13;7.18;;;;;;;7.96;58.70;102122.13;5037835;28;20458;-46
2022/04/27 02:05:52;;;;;;;11.90;7.28;;;;;;;7.92;58.90;102137.69;5032953;28;20021;-45
2022/04/27 02:08:18;;;;;;;14.43;7.70;;;;;;;7.92;58.82;102129.69;5038140;28;20017;-46
2022/04/27 02:10:44;;;;;;;12.00;7.22;;;;;;;7.93;58.36;102131.34;5035683;28;20023;-46
2022/04/27 02:13:10;;;;;;;11.88;7.53;;;;;;;7.92;58.36;102132.38;5042246;28;20021;-47
2022/04/27 02:15:35;;;;;;;13.65;7.55;;;;;;;7.89;58.37;102132.72;5036085;28;20493;-45
2022/04/27 02:18:02;;;;;;;12.68;7.60;;;;;;;7.86;58.13;102141.13;5038780;28;20114;-46
2022/04/27 02:20:28;;;;;;;13.70;7.43;;;;;;;7.82;58.25;102137.22;5035260;28;20167;-47
2022/04/27 02:22:54;;;;;;;14.30;8.63;;;;;;;7.77;58.43;102134.31;5036275;28;20118;-46
2022/04/27 02:25:21;;;;;;;14.05;8.13;;;;;;;7.74;58.26;102140.88;5032793;28;20066;-45
2022/04/27 02:27:47;;;;;;;13.52;7.93;;;;;;;7.68;59.06;102132.81;5043166;28;20345;-47
2022/04/27 02:30:13;;;;;;;15.93;8.00;;;;;;;7.61;59.08;102142.63;5033978;28;20033;-46
2022/04/27 02:32:39;;;;;;;14.52;7.88;;;;;;;7.58;58.86;102135.84;5034452;28;20021;-46
2022/04/27 02:35:06;;;;;;;15.05;8.13;;;;;;;7.57;59.20;102139.53;5037435;28;20058;-46
2022/04/27 02:37:33;;;;;;;13.32;8.15;;;;;;;7.52;59.19;102134.75;5035917;28;20370;-46
2022/04/27 02:39:59;;;;;;;15.18;8.13;;;;;;;7.50;58.99;102139.44;5041099;28;20028;-47
2022/04/27 02:42:26;;;;;;;15.52;8.82;;;;;;;7.47;58.87;102144.34;5034300;28;20441;-46
2022/04/27 02:44:51;;;;;;;13.73;8.13;;;;;;;7.43;58.99;102135.91;5035855;28;20162;-46
2022/04/27 02:47:18;;;;;;;13.73;8.27;;;;;;;7.42;59.00;102139.59;5037559;28;20100;-45
2022/04/27 02:52:28;;;;;;;12.88;8.23;;;;;;;7.34;58.50;102144.25;5037303;28;20035;-47
2022/04/27 02:54:54;;;;;;;14.18;9.00;;;;;;;7.29;58.76;102147.50;5035997;28;20037;-47
2022/04/27 02:57:19;;;;;;;12.35;8.00;;;;;;;7.24;58.96;102144.59;5033516;28;20052;-47
2022/04/27 02:59:45;;;;;;;16.05;7.97;;;;;;;7.19;58.70;102157.66;5035301;28;20055;-46
2022/04/27 03:02:11;;;;;;;14.77;8.55;;;;;;;7.13;58.90;102153.91;5036055;28;20076;-47
2022/04/27 03:04:37;;;;;;;15.02;8.05;;;;;;;7.06;59.43;102152.22;5035922;28;20048;-46
2022/04/27 03:07:03;;;;;;;13.13;8.13;;;;;;;7.02;59.69;102156.28;5037686;28;20499;-46
2022/04/27 03:09:29;;;;;;;15.07;7.57;;;;;;;6.96;59.46;102156.00;5035639;28;20546;-46
2022/04/27 03:11:55;;;;;;;16.42;8.55;;;;;;;6.89;59.87;102160.44;5039647;28;20025;-46
2022/04/27 03:14:21;;;;;;;18.65;9.43;;;;;;;6.80;60.22;102161.56;5037883;28;20095;-45
2022/04/27 03:16:48;;;;;;;16.02;8.77;;;;;;;6.72;60.82;102161.69;5042186;28;20048;-47
2022/04/27 03:19:13;;;;;;;17.52;8.52;;;;;;;6.62;61.46;102167.31;5038093;28;20025;-48
2022/04/27 03:21:39;;;;;;;13.20;7.78;;;;;;;6.57;61.92;102163.56;5045692;28;20025;-47
2022/04/27 03:24:05;;;;;;;12.85;7.68;;;;;;;6.53;62.07;102167.63;5073701;22;20064;-80
2022/04/27 03:26:31;;;;;;;21.13;9.20;;;;;;;6.48;62.46;102175.34;5070779;28;20043;-80
2022/04/27 03:28:57;;;;;;;13.98;8.52;;;;;;;6.43;62.58;102172.38;5069371;28;20094;-80
2022/04/27 03:31:23;;;;;;;15.70;8.75;;;;;;;6.42;62.54;102176.88;5070069;28;20100;-80
2022/04/27 03:33:49;;;;;;;14.38;8.73;;;;;;;6.45;62.27;102181.00;5071774;28;20104;-80
2022/04/27 03:36:14;;;;;;;14.77;9.48;;;;;;;6.45;62.36;102186.34;5071942;28;20035;-81
2022/04/27 03:38:41;;;;;;;14.35;7.85;;;;;;;6.44;62.54;102182.84;5065142;28;20020;-80
2022/04/27 03:41:07;;;;;;;12.63;7.40;;;;;;;6.46;62.15;102182.66;5069951;28;20165;-80
2022/04/27 03:43:33;;;;;;;11.95;8.13;;;;;;;6.49;62.02;102183.16;5073980;28;20079;-80
2022/04/27 03:45:59;;;;;;;13.00;8.30;;;;;;;6.52;61.44;102182.78;5063482;28;20051;-80
2022/04/27 03:48:24;;;;;;;14.57;7.75;;;;;;;6.52;61.51;102182.78;5066124;28;20020;-80
2022/04/27 03:50:50;;;;;;;14.57;7.82;;;;;;;6.49;61.20;102183.16;5070445;28;20043;-80
2022/04/27 03:53:15;;;;;;;13.70;8.20;;;;;;;6.47;61.32;102189.66;5069045;28;20020;-80
2022/04/27 03:55:41;;;;;;;12.95;7.70;;;;;;;6.38;61.26;102183.59;5067174;28;20028;-80
2022/04/27 03:58:07;;;;;;;14.07;8.27;;;;;;;6.34;61.46;102193.81;5069137;28;20244;-80
2022/04/27 04:00:33;;;;;;;15.20;7.90;;;;;;;6.33;61.51;102194.81;5062322;28;20078;-80
2022/04/27 04:03:00;;;;;;;24.95;7.72;;;;;;;6.35;61.30;102198.13;5062309;28;20067;-79
2022/04/27 04:05:26;;;;;;;16.45;7.55;;;;;;;6.38;61.14;102206.75;5069712;28;20525;-80
2022/04/27 04:07:51;;;;;;;13.35;7.85;;;;;;;6.32;61.00;102203.00;5073636;28;20016;-80
2022/04/27 04:10:17;;;;;;;13.10;7.47;;;;;;;6.32;61.17;102213.63;5066973;28;20021;-78
2022/04/27 04:12:46;;;;;;;13.13;8.80;;;;;;;6.24;61.55;102216.38;5069252;28;20024;-77
2022/04/27 04:15:13;;;;;;;14.20;8.95;;;;;;;6.19;61.74;102219.59;5069073;28;20021;-78
2022/04/27 04:17:45;;;;;;;14.52;8.75;;;;;;;6.19;61.94;102224.09;5060331;28;20033;-78
2022/04/27 04:20:15;;;;;;;13.02;7.93;;;;;;;6.21;61.79;102233.53;5066232;28;20039;-77
2022/04/27 04:22:44;;;;;;;13.85;7.70;;;;;;;6.25;61.86;102234.00;5066519;28;20025;-77
2022/04/27 04:30:39;;;;;;;17.23;8.90;;;;;;;6.28;61.54;102233.63;5066294;28;20043;-78
2022/04/27 04:33:11;;;;;;;28.13;9.60;;;;;;;6.28;61.94;102233.63;5064846;28;20043;-77
2022/04/27 04:35:37;;;;;;;40.40;11.02;;;;;;;6.29;62.23;102244.13;5065699;28;20033;-78
2022/04/27 04:38:04;;;;;;;28.23;10.32;;;;;;;6.28;62.36;102239.81;5075437;28;20115;-78
2022/04/27 04:40:30;;;;;;;25.63;10.57;;;;;;;6.30;62.80;102236.97;5064240;28;20112;-78
2022/04/27 04:42:56;;;;;;;24.00;10.23;;;;;;;6.28;63.29;102245.13;5065144;28;20078;-78
2022/04/27 04:45:23;;;;;;;20.42;10.18;;;;;;;6.29;63.40;102248.63;5068220;28;20025;-78
2022/04/27 04:47:49;;;;;;;19.73;9.52;;;;;;;6.30;63.31;102244.94;5065543;28;20025;-79
2022/04/27 04:50:15;;;;;;;16.25;9.32;;;;;;;6.28;63.65;102250.44;5069430;28;20028;-79
2022/04/27 04:52:40;;;;;;;17.67;10.02;;;;;;;6.32;63.58;102249.06;5067913;28;20082;-80
2022/04/27 04:55:06;;;;;;;18.77;9.63;;;;;;;6.38;63.45;102252.81;5063898;28;20016;-79
2022/04/27 04:57:32;;;;;;;15.30;9.07;;;;;;;6.43;63.73;102262.91;5068682;28;20029;-79
2022/04/27 04:59:58;;;;;;;19.23;10.07;;;;;;;6.44;63.79;102261.91;5069367;28;20107;-79
2022/04/27 05:02:24;;;;;;;18.27;9.40;;;;;;;6.45;63.89;102267.03;5071094;28;20056;-79
2022/04/27 05:04:50;;;;;;;17.88;9.95;;;;;;;6.49;64.07;102270.19;5062912;28;20029;-79
2022/04/27 05:07:18;;;;;;;21.98;10.27;;;;;;;6.51;64.18;102273.50;5059078;28;20111;-79
2022/04/27 05:09:44;;;;;;;17.80;9.63;;;;;;;6.58;64.02;102271.72;5063828;28;20043;-80
2022/04/27 05:12:10;;;;;;;16.88;9.55;;;;;;;6.64;64.29;102282.50;5067435;28;20040;-79
2022/04/27 05:14:36;;;;;;;17.20;10.18;;;;;;;6.72;64.12;102276.22;5067037;28;20478;-80
2022/04/27 05:17:02;;;;;;;18.75;11.05;;;;;;;6.83;63.92;102282.94;5068905;28;20036;-79
2022/04/27 05:19:27;;;;;;;17.45;9.77;;;;;;;6.92;63.73;102287.13;5067931;28;20039;-81
2022/04/27 05:21:53;;;;;;;18.48;9.73;;;;;;;6.97;63.89;102282.88;5073891;28;20028;-80
2022/04/27 05:24:18;;;;;;;14.80;9.60;;;;;;;7.04;63.75;102295.50;5064673;28;20036;-80
2022/04/27 05:26:44;;;;;;;15.25;9.32;;;;;;;7.12;63.75;102303.34;5063400;28;20032;-80
2022/04/27 05:32:04;;;;;;;14.75;9.35;;;;;;;7.31;63.34;102300.09;5066850;28;20047;-80
2022/04/27 05:34:30;;;;;;;17.20;9.18;;;;;;;7.45;63.63;102312.56;5066903;28;20035;-80
2022/04/27 05:36:59;;;;;;;18.42;9.70;;;;;;;7.55;63.18;102307.75;5069868;28;20501;-80
2022/04/27 05:39:25;;;;;;;17.95;9.82;;;;;;;7.66;63.31;102311.75;5071042;28;20024;-80
2022/04/27 05:41:51;;;;;;;18.55;10.27;;;;;;;7.76;63.43;102312.25;5074394;28;20097;-79
2022/04/27 05:44:24;;;;;;;16.88;9.60;;;;;;;7.87;63.30;102305.56;5069641;28;20115;-80
2022/04/27 05:46:50;;;;;;;18.15;9.60;;;;;;;7.99;63.50;102309.38;5068703;28;20104;-80
2022/04/27 05:49:16;;;;;;;16.33;9.50;;;;;;;8.11;63.37;102307.00;5066053;28;20035;-80
2022/04/27 05:51:42;;;;;;;15.05;9.32;;;;;;;8.21;63.20;102317.34;5067720;28;20150;-80
2022/04/27 05:54:07;;;;;;;14.98;9.07;;;;;;;8.30;63.28;102310.84;5061798;28;20063;-79
2022/04/27 05:56:34;;;;;;;16.80;9.35;;;;;;;8.40;63.14;102319.34;5062298;28;20064;-79
2022/04/27 05:59:00;;;;;;;19.58;9.43;;;;;;;8.51;63.30;102316.16;5071635;28;20036;-80
2022/04/27 06:01:25;;;;;;;17.67;9.20;;;;;;;8.61;63.00;102316.63;5067285;28;20028;-79
2022/04/27 06:03:53;;;;;;;17.38;9.02;;;;;;;8.72;62.97;102326.75;5070841;28;20044;-79
2022/04/27 06:06:20;;;;;;;16.30;8.93;;;;;;;8.83;62.78;102328.06;5065108;28;20039;-80
2022/04/27 06:08:46;;;;;;;16.00;9.18;;;;;;;8.91;62.60;102325.22;5065883;28;20020;-79
2022/04/27 06:11:11;;;;;;;16.55;8.38;;;;;;;8.99;62.39;102321.56;5066200;28;20078;-80
2022/04/27 06:13:37;;;;;;;17.75;9.40;;;;;;;9.06;62.67;102328.56;5068922;28;20024;-79
2022/04/27 06:16:02;;;;;;;19.02;9.13;;;;;;;9.18;62.22;102331.50;5068502;28;20434;-80
2022/04/27 06:18:28;;;;;;;16.08;8.85;;;;;;;9.26;62.29;102334.00;5059730;28;20461;-80
2022/04/27 06:20:53;;;;;;;17.60;9.15;;;;;;;9.37;61.91;102335.28;5067128;28;20024;-79
2022/04/27 06:23:19;;;;;;;17.83;8.50;;;;;;;9.48;61.85;102336.53;5064414;28;20020;-80
2022/04/27 06:25:49;;;;;;;16.92;9.40;;;;;;;9.58;61.35;102342.31;5068902;28;20033;-80
2022/04/27 06:28:18;;;;;;;18.75;8.93;;;;;;;9.67;61.14;102335.75;5067923;28;20027;-80
2022/04/27 06:30:44;;;;;;;16.20;8.00;;;;;;;9.79;61.06;102341.34;5064445;28;20630;-79
2022/04/27 06:33:10;;;;;;;15.40;8.60;;;;;;;9.90;61.02;102341.56;5067466;28;20023;-80
2022/04/27 06:35:35;;;;;;;21.45;9.15;;;;;;;10.03;60.79;102339.91;5062146;28;20031;-80
2022/04/27 06:38:01;;;;;;;19.00;8.90;;;;;;;10.16;60.76;102342.59;5067457;28;20035;-80
2022/04/27 06:40:27;;;;;;;16.45;8.88;;;;;;;10.28;60.56;102340.97;5067274;28;20021;-80
2022/04/27 06:42:53;;;;;;;16.25;8.57;;;;;;;10.41;59.98;102340.97;5066524;28;20024;-80
2022/04/27 06:45:19;;;;;;;14.68;8.10;;;;;;;10.54;59.83;102348.97;5071859;28;20024;-79
2022/04/27 06:47:44;;;;;;;14.45;8.23;;;;;;;10.67;59.89;102352.66;5064252;28;20027;-80
2022/04/27 06:50:13;;;;;;;16.23;8.70;;;;;;;10.83;59.83;102346.88;5061933;28;20485;-79
2022/04/27 06:52:41;;;;;;;18.23;9.57;;;;;;;10.94;59.52;102361.47;5060858;28;20074;-79
2022/04/27 06:55:07;;;;;;;14.95;8.68;;;;;;;11.07;59.34;102358.75;5068919;28;20520;-80
2022/04/27 06:57:33;;;;;;;14.43;8.70;;;;;;;11.22;59.48;102353.13;5069140;28;20036;-81
2022/04/27 06:59:58;;;;;;;13.48;7.43;;;;;;;11.37;58.98;102356.34;5064079;28;20021;-80
2022/04/27 07:02:24;;;;;;;13.50;8.43;;;;;;;11.46;58.71;102357.72;5065737;28;20050;-80
2022/04/27 07:04:55;;;;;;;12.95;8.20;;;;;;;11.48;57.86;102350.28;5069439;28;20051;-80
2022/04/27 07:07:21;;;;;;;13.93;8.43;;;;;;;11.59;57.69;102352.31;5061573;28;20025;-80
2022/04/27 07:09:46;;;;;;;14.25;8.48;;;;;;;11.69;57.85;102358.03;5070099;28;20051;-80
2022/04/27 07:12:13;;;;;;;14.60;8.30;;;;;;;11.84;57.52;102364.97;5057429;28;20063;-79
2022/04/27 07:14:38;;;;;;;12.15;7.95;;;;;;;11.99;57.34;102357.44;5068013;28;20486;-80
2022/04/27 07:17:04;;;;;;;11.93;8.20;;;;;;;12.11;57.00;102363.75;5067783;28;20082;-80
2022/04/27 07:19:30;;;;;;;16.80;8.20;;;;;;;12.24;56.84;102358.28;5068177;28;20067;-80
2022/04/27 07:21:55;;;;;;;14.23;8.68;;;;;;;12.40;56.71;102359.59;5067297;28;20073;-80
2022/04/27 07:24:21;;;;;;;18.02;8.68;;;;;;;12.52;56.18;102367.75;5068744;28;20561;-79
2022/04/27 07:26:46;;;;;;;14.88;8.05;;;;;;;12.65;55.70;102362.25;5069445;28;20058;-80
2022/04/27 07:29:12;;;;;;;11.20;7.35;;;;;;;12.81;55.75;102363.53;5069275;28;20051;-80
2022/04/27 07:31:37;;;;;;;11.23;7.78;;;;;;;12.97;54.89;102360.25;5063430;28;20029;-79
2022/04/27 07:34:03;;;;;;;14.75;8.10;;;;;;;13.13;54.71;102361.50;5069960;28;20031;-79
2022/04/27 07:36:28;;;;;;;13.88;7.95;;;;;;;13.26;54.34;102366.75;5074555;28;20028;-79
2022/04/27 07:38:54;;;;;;;12.18;7.50;;;;;;;13.38;54.17;102366.81;5064815;28;20029;-79
2022/04/27 07:41:20;;;;;;;15.40;8.35;;;;;;;13.44;53.69;102366.69;5078128;28;20393;-79
2022/04/27 07:43:45;;;;;;;13.65;8.13;;;;;;;13.54;52.59;102367.00;5072537;28;20028;-79
2022/04/27 07:46:11;;;;;;;12.10;7.47;;;;;;;13.65;52.54;102370.78;5066013;28;20035;-81
2022/04/27 07:48:37;;;;;;;10.18;7.10;;;;;;;13.81;52.13;102374.69;5067293;28;20466;-80
2022/04/27 07:51:05;;;;;;;10.32;6.20;;;;;;;13.93;51.29;102372.84;5083296;28;20017;-79
2022/04/27 07:53:30;;;;;;;9.63;6.28;;;;;;;14.06;51.34;102378.03;5065377;28;20035;-79
2022/04/27 07:55:56;;;;;;;10.82;7.40;;;;;;;14.13;50.17;102381.44;5061832;28;20028;-77
2022/04/27 07:58:22;;;;;;;15.50;7.80;;;;;;;14.26;50.03;102380.41;5066825;28;20511;-78
2022/04/27 08:00:47;;;;;;;10.57;6.90;;;;;;;14.41;50.14;102385.34;5070754;28;20576;-77
2022/04/27 08:03:13;;;;;;;13.48;6.75;;;;;;;14.59;49.36;102384.47;5075262;28;20043;-78
2022/04/27 08:05:39;;;;;;;12.65;6.57;;;;;;;14.72;49.47;102387.75;5070963;28;20063;-78
2022/04/27 08:08:07;;;;;;;12.35;6.80;;;;;;;14.86;48.76;102384.78;5059808;28;20024;-77
2022/04/27 08:10:32;;;;;;;10.88;6.50;;;;;;;14.92;48.35;102398.16;5072499;28;20035;-78
2022/04/27 08:12:59;;;;;;;10.13;6.65;;;;;;;15.01;48.18;102390.50;5069634;28;20025;-77
2022/04/27 08:15:25;;;;;;;10.48;5.78;;;;;;;15.09;47.19;102390.16;5069801;28;20036;-77
2022/04/27 08:17:54;;;;;;;11.25;6.05;;;;;;;15.18;47.40;102394.09;5067982;28;20021;-77
2022/04/27 08:23:10;;;;;;;12.07;6.07;;;;;;;15.46;46.61;102396.03;5069539;28;20051;-78
2022/04/27 08:25:36;;;;;;;7.88;5.22;;;;;;;15.53;45.65;102395.88;5070083;28;20032;-78
2022/04/27 08:28:07;;;;;;;11.60;4.82;;;;;;;15.57;45.11;102387.03;5069223;28;20036;-77
2022/04/27 08:30:37;;;;;;;10.07;5.57;;;;;;;15.59;44.95;102390.34;5065564;28;20087;-76
2022/04/27 08:33:04;;;;;;;10.70;5.45;;;;;;;15.59;44.20;102400.34;5064621;28;20035;-77
2022/04/27 08:35:33;;;;;;;7.75;5.28;;;;;;;15.68;44.42;102391.63;5063985;28;20024;-77
2022/04/27 08:38:00;;;;;;;9.90;5.07;;;;;;;15.85;44.07;102396.25;5065625;28;20040;-77
2022/04/27 08:40:26;;;;;;;9.85;5.50;;;;;;;15.96;43.94;102401.56;5071698;28;20089;-77
2022/04/27 08:42:53;;;;;;;8.15;5.35;;;;;;;15.90;43.25;102401.72;5069852;28;20020;-78
2022/04/27 08:45:20;;;;;;;6.53;4.60;;;;;;;16.00;43.30;102399.22;5073855;28;20082;-78
2022/04/27 08:47:46;;;;;;;7.57;4.53;;;;;;;16.18;43.42;102407.09;5068376;28;20029;-78
2022/04/27 08:50:21;;;;;;;12.20;4.43;;;;;;;16.10;40.67;102401.25;5071331;28;20028;-77
2022/04/27 08:52:48;;;;;;;6.80;3.92;;;;;;;16.18;42.18;102403.56;5072168;28;20103;-78
2022/04/27 08:55:14;;;;;;;9.40;4.22;;;;;;;16.29;41.52;102399.94;5063123;28;20024;-78
2022/04/27 08:57:41;;;;;;;9.52;4.60;;;;;;;16.29;41.42;102399.94;5075992;28;20578;-76
2022/04/27 09:00:09;;;;;;;9.05;3.83;;;;;;;16.44;41.04;102408.31;5063768;28;20032;-77
2022/04/27 09:02:35;;;;;;;6.55;3.83;;;;;;;16.55;40.41;102410.13;5069400;28;20071;-77
2022/04/27 09:05:08;;;;;;;9.95;4.30;;;;;;;16.61;40.27;102411.81;5062692;28;20126;-77
2022/04/27 09:07:51;;;;;;;5.50;3.47;;;;;;;16.65;39.46;102414.03;5063168;28;20631;-78
2022/04/27 09:10:19;;;;;;;7.45;4.63;;;;;;;16.78;40.39;102411.84;5067176;28;20040;-77
2022/04/27 09:12:50;;;;;;;8.70;3.85;;;;;;;16.91;40.15;102416.06;5058317;28;20058;-78
2022/04/27 09:15:21;;;;;;;7.95;4.05;;;;;;;17.06;39.98;102410.88;5069798;28;20036;-77
2022/04/27 09:20:54;;;;;;;5.80;3.58;;;;;;;17.17;39.25;102409.09;5075260;28;20046;-76
2022/04/27 09:23:29;;;;;;;6.30;3.72;;;;;;;17.09;38.25;102413.06;5069194;28;20027;-77
2022/04/27 09:26:01;;;;;;;5.90;3.17;;;;;;;17.02;38.49;102419.72;5065779;28;20445;-77
2022/04/27 09:28:30;;;;;;;7.20;3.05;;;;;;;17.05;37.53;102413.81;5071813;28;20064;-77
2022/04/27 09:30:56;;;;;;;6.18;3.25;;;;;;;17.05;37.56;102420.03;5072241;28;20047;-78
2022/04/27 09:33:35;;;;;;;6.50;3.08;;;;;;;17.04;37.73;102414.88;5063906;28;20032;-77
2022/04/27 09:36:02;;;;;;;6.57;3.55;;;;;;;17.24;38.25;102417.88;5063922;28;20040;-77
2022/04/27 09:38:39;;;;;;;6.72;4.00;;;;;;;17.34;37.70;102422.56;5067275;28;20035;-77
2022/04/27 09:41:05;;;;;;;6.53;4.63;;;;;;;17.42;38.44;102416.72;5062523;28;20301;-78
2022/04/27 09:43:59;;;;;;;7.07;4.13;;;;;;;17.55;38.03;102412.78;5071193;28;20024;-78
2022/04/27 09:46:25;;;;;;;9.30;6.05;;;;;;;17.63;37.73;102413.16;5058566;28;20040;-78
2022/04/27 09:49:09;;;;;;;7.60;4.65;;;;;;;17.65;36.21;102411.03;5060043;28;20039;-76
2022/04/27 09:51:36;;;;;;;6.22;3.97;;;;;;;17.80;37.19;102413.91;5068251;28;20115;-78
2022/04/27 09:54:03;;;;;;;5.93;3.55;;;;;;;17.85;37.54;102417.75;5069529;28;20048;-77
2022/04/27 09:56:34;;;;;;;7.47;4.22;;;;;;;17.85;36.47;102412.31;5067263;28;20090;-77
2022/04/27 09:59:09;;;;;;;6.95;4.22;;;;;;;17.85;36.50;102412.31;5066934;28;20033;-77
2022/04/27 10:01:36;;;;;;;6.25;3.88;;;;;;;17.90;36.80;102409.66;5059227;28;20104;-77
2022/04/27 10:04:06;;;;;;;7.68;4.13;;;;;;;17.82;36.77;102408.25;5068259;28;20025;-77
2022/04/27 10:06:34;;;;;;;6.30;3.72;;;;;;;17.94;36.97;102398.03;5068623;28;20036;-78
2022/04/27 10:09:01;;;;;;;5.82;3.30;;;;;;;18.08;37.22;102401.16;5072370;28;20724;-76
2022/04/27 10:11:33;;;;;;;5.00;3.80;;;;;;;18.19;37.47;102397.44;5066834;28;20032;-77
2022/04/27 10:14:00;;;;;;;6.75;3.40;;;;;;;18.24;37.51;102404.81;5070064;28;20025;-77
2022/04/27 10:16:26;;;;;;;5.43;4.00;;;;;;;18.35;37.44;102401.94;5070473;28;20042;-78
2022/04/27 10:18:52;;;;;;;5.75;3.90;;;;;;;18.41;37.04;102414.44;5065409;28;20082;-78
2022/04/27 10:22:01;;;;;;;5.30;3.47;;;;;;;18.21;36.44;102397.19;5065406;28;20032;-77
2022/04/27 10:24:38;;;;;;;5.20;3.35;;;;;;;18.32;36.87;102407.06;5065936;28;20032;-77
2022/04/27 10:27:14;;;;;;;6.07;3.45;;;;;;;18.38;37.18;102411.44;5067241;28;20032;-78
2022/04/27 10:29:39;;;;;;;3.13;2.58;;;;;;;18.54;36.99;102412.38;5060961;28;20028;-77
2022/04/27 10:32:05;;;;;;;4.22;3.00;;;;;;;18.69;37.05;102409.78;5078169;28;20024;-77
2022/04/27 10:34:32;;;;;;;5.18;3.10;;;;;;;18.77;36.94;102414.72;5070777;28;20032;-78
2022/04/27 10:36:59;;;;;;;6.38;3.30;;;;;;;18.88;36.86;102411.00;5070929;28;20063;-78
2022/04/27 10:39:31;;;;;;;5.40;3.38;;;;;;;19.04;37.01;102402.91;5063540;28;20070;-79
2022/04/27 10:42:02;;;;;;;5.57;3.00;;;;;;;19.24;36.57;102409.25;5069972;28;20474;-79
2022/04/27 10:44:59;;;;;;;5.55;2.90;;;;;;;19.32;36.45;102406.00;5076929;28;20036;-79
2022/04/27 10:47:33;;;;;;;5.53;2.75;;;;;;;19.45;36.43;102401.97;5066394;28;20113;-79
2022/04/27 10:50:13;;;;;;;4.28;2.42;;;;;;;19.39;35.43;102404.94;5067062;28;20028;-79
2022/04/27 10:52:53;;;;;;;3.88;2.05;;;;;;;19.38;35.21;102412.28;5066552;28;20033;-79
2022/04/27 10:55:42;;;;;;;5.13;2.10;;;;;;;19.31;33.83;102409.00;5062913;28;20089;-79
2022/04/27 10:58:31;;;;;;;2.55;1.80;;;;;;;19.32;34.33;102410.63;5073975;28;20032;-77
2022/04/27 11:01:02;;;;;;;3.50;2.30;;;;;;;19.48;34.44;102404.16;5063877;28;20066;-78
2022/04/27 11:03:29;;;;;;;4.90;2.60;;;;;;;19.49;34.83;102399.53;5060949;28;20039;-78
2022/04/27 11:06:00;;;;;;;5.45;2.65;;;;;;;19.49;34.31;102407.69;5063586;28;20032;-78
2022/04/27 11:08:34;;;;;;;3.10;2.10;;;;;;;19.46;34.12;102409.06;5070025;28;20386;-77
2022/04/27 11:11:06;;;;;;;5.00;2.03;;;;;;;19.22;33.77;102405.16;5066624;28;20680;-77
2022/04/27 11:13:35;;;;;;;3.85;1.70;;;;;;;19.19;34.10;102400.25;5062907;28;20034;-77
2022/04/27 11:16:08;;;;;;;3.00;1.83;;;;;;;19.22;34.18;102406.00;5065862;28;20036;-78
2022/04/27 11:18:56;;;;;;;3.20;2.00;;;;;;;19.32;33.60;102399.75;5059491;28;20025;-78
2022/04/27 11:21:30;;;;;;;3.60;2.08;;;;;;;19.55;34.52;102407.47;5068173;28;20020;-77
2022/04/27 11:24:00;;;;;;;3.13;1.70;;;;;;;19.71;33.95;102399.34;5068509;28;20027;-78
2022/04/27 11:26:26;;;;;;;5.20;1.98;;;;;;;19.79;33.73;102398.81;5059600;28;20044;-77
2022/04/27 11:28:53;;;;;;;7.40;2.22;;;;;;;19.95;34.24;102397.75;5066656;28;20017;-78
2022/04/27 11:31:19;;;;;;;4.05;2.63;;;;;;;20.11;33.83;102396.69;5061745;28;20032;-76
2022/04/27 11:33:45;;;;;;;3.78;2.50;;;;;;;19.97;33.78;102392.84;5075562;28;20117;-78
2022/04/27 11:36:20;;;;;;;5.38;2.88;;;;;;;19.67;32.05;102387.38;5068302;28;20024;-79
2022/04/27 11:38:46;;;;;;;3.20;2.45;;;;;;;19.57;33.85;102397.16;5080497;28;20028;-77
2022/04/27 11:41:20;;;;;;;4.75;2.50;;;;;;;19.61;33.59;102394.72;5078933;28;20066;-78
2022/04/27 11:43:46;;;;;;;4.82;2.15;;;;;;;19.77;33.85;102385.50;5069810;28;20072;-78
2022/04/27 11:46:12;;;;;;;3.85;1.90;;;;;;;19.95;33.72;102392.31;5077112;28;20035;-78